Time;durP1;ratioP1;P1;durP2;ratioP2;P2;SDS_P1;SDS_P2;PMS_P1;PMS_P2;Temp;Humidity;BMP_temperature;BMP_pressure;BME280_temperature;BME280_humidity;BME280_pressure;Samples;Min_cycle;Max_cycle;Signal;HPM_P1;HPM_P2
2022/04/27 00:00:21;;;;;;;;;;;;;;;;;;5054551;28;19969;-81
2022/04/27 00:02:47;;;;;;;;;;;;;;;;;;5054482;28;19974;-79
2022/04/27 00:05:13;;;;;;;;;;;;;;;;;;5054428;28;19971;-79
2022/04/27 00:07:38;;;;;;;;;;;;;;;;;;5053957;28;20011;-79
2022/04/27 00:10:05;;;;;;;;;;;;;;;;;;5054214;28;19954;-78
2022/04/27 00:12:31;;;;;;;;;;;;;;;;;;5054219;28;19916;-79
2022/04/27 00:14:57;;;;;;;;;;;;;;;;;;5054325;28;19925;-78
2022/04/27 00:17:23;;;;;;;;;;;;;;;;;;5054129;28;20011;-79
2022/04/27 00:19:48;;;;;;;;;;;;;;;;;;5054026;28;20452;-79
2022/04/27 00:22:14;;;;;;;;;;;;;;;;;;5053935;28;19939;-78
2022/04/27 00:24:39;;;;;;;;;;;;;;;;;;5052644;28;19917;-78
2022/04/27 00:27:05;;;;;;;;;;;;;;;;;;5053891;28;19928;-78
2022/04/27 00:29:31;;;;;;;;;;;;;;;;;;5053833;28;19960;-79
2022/04/27 00:31:57;;;;;;;;;;;;;;;;;;5053830;28;19949;-79
2022/04/27 00:34:22;;;;;;;;;;;;;;;;;;5053704;28;19923;-80
2022/04/27 00:36:48;;;;;;;;;;;;;;;;;;5053567;28;20008;-80
2022/04/27 00:39:13;;;;;;;;;;;;;;;;;;5053688;28;19921;-80
2022/04/27 00:41:39;;;;;;;;;;;;;;;;;;5053536;28;19921;-80
2022/04/27 00:44:33;;;;;;;;;;;;;;;;;;5053646;28;19927;-79
2022/04/27 00:47:00;;;;;;;;;;;;;;;;;;5053504;28;20340;-84
2022/04/27 00:49:26;;;;;;;;;;;;;;;;;;5053714;28;19927;-78
2022/04/27 00:51:52;;;;;;;;;;;;;;;;;;5053360;28;19946;-78
2022/04/27 00:54:22;;;;;;;;;;;;;;;;;;5035592;28;20329;-78
2022/04/27 00:56:51;;;;;;;;;;;;;;;;;;5053551;28;19917;-82
2022/04/27 00:59:16;;;;;;;;;;;;;;;;;;5053306;28;19975;-87
2022/04/27 01:01:42;;;;;;;;;;;;;;;;;;5053206;28;20377;-87
2022/04/27 01:04:08;;;;;;;;;;;;;;;;;;5053154;28;19916;-78
2022/04/27 01:06:34;;;;;;;;;;;;;;;;;;5053270;28;19920;-79
2022/04/27 01:09:00;;;;;;;;;;;;;;;;;;5053393;28;20011;-80
2022/04/27 01:11:25;;;;;;;;;;;;;;;;;;5053273;28;20739;-77
2022/04/27 01:13:51;;;;;;;;;;;;;;;;;;5053038;28;19928;-78
2022/04/27 01:16:16;;;;;;;;;;;;;;;;;;5051963;28;20336;-79
2022/04/27 01:18:43;;;;;;;;;;;;;;;;;;5035672;28;19934;-79
2022/04/27 01:21:09;;;;;;;;;;;;;;;;;;5033045;28;20309;-79
2022/04/27 01:23:34;;;;;;;;;;;;;;;;;;5032958;28;19917;-79
2022/04/27 01:26:05;;;;;;;;;;;;;;;;;;5033011;28;20420;-81
2022/04/27 01:28:31;;;;;;;;;;;;;;;;;;5033029;28;19917;-80
2022/04/27 01:30:57;;;;;;;;;;;;;;;;;;5015319;28;19928;-80
2022/04/27 01:33:23;;;;;;;;;;;;;;;;;;5032996;28;19921;-78
2022/04/27 01:35:49;;;;;;;;;;;;;;;;;;5032771;28;19990;-79
2022/04/27 01:38:16;;;;;;;;;;;;;;;;;;5032988;28;19968;-78
2022/04/27 01:40:42;;;;;;;;;;;;;;;;;;5033071;28;19917;-79
2022/04/27 01:43:07;;;;;;;;;;;;;;;;;;5032916;28;19924;-79
2022/04/27 01:45:33;;;;;;;;;;;;;;;;;;5032664;28;19921;-79
2022/04/27 01:47:58;;;;;;;;;;;;;;;;;;5032929;28;19961;-78
2022/04/27 01:50:24;;;;;;;;;;;;;;;;;;5032914;28;19928;-80
2022/04/27 01:55:36;;;;;;;;;;;;;;;;;;5001677;28;19925;-78
2022/04/27 01:58:02;;;;;;;;;;;;;;;;;;5032722;28;19917;-78
2022/04/27 02:00:27;;;;;;;;;;;;;;;;;;5032953;28;20051;-78
2022/04/27 02:02:53;;;;;;;;;;;;;;;;;;5032627;28;20385;-83
2022/04/27 02:05:18;;;;;;;;;;;;;;;;;;5032725;28;19924;-79
2022/04/27 02:07:43;;;;;;;;;;;;;;;;;;5042971;28;19999;-78
2022/04/27 02:10:09;;;;;;;;;;;;;;;;;;5052674;28;19921;-79
2022/04/27 02:12:35;;;;;;;;;;;;;;;;;;5052660;28;19925;-83
2022/04/27 02:15:02;;;;;;;;;;;;;;;;;;5052659;28;19967;-78
2022/04/27 02:17:27;;;;;;;;;;;;;;;;;;5052546;28;19967;-78
2022/04/27 02:19:53;;;;;;;;;;;;;;;;;;5054559;28;19917;-78
2022/04/27 02:22:18;;;;;;;;;;;;;;;;;;5056246;28;19963;-79
2022/04/27 02:24:44;;;;;;;;;;;;;;;;;;5056205;28;20008;-79
2022/04/27 02:27:09;;;;;;;;;;;;;;;;;;5056163;28;19923;-79
2022/04/27 02:29:36;;;;;;;;;;;;;;;;;;5056263;28;19966;-78
2022/04/27 02:32:01;;;;;;;;;;;;;;;;;;5056357;28;19923;-79
2022/04/27 02:34:27;;;;;;;;;;;;;;;;;;5055961;28;19943;-79
2022/04/27 02:36:52;;;;;;;;;;;;;;;;;;5038182;28;19916;-79
2022/04/27 02:39:18;;;;;;;;;;;;;;;;;;5038104;28;19913;-84
2022/04/27 02:41:44;;;;;;;;;;;;;;;;;;5055770;28;19940;-79
2022/04/27 02:44:10;;;;;;;;;;;;;;;;;;5055914;28;19913;-79
2022/04/27 02:46:37;;;;;;;;;;;;;;;;;;5055781;28;20379;-78
2022/04/27 02:51:49;;;;;;;;;;;;;;;;;;5055784;28;19967;-79
2022/04/27 02:54:16;;;;;;;;;;;;;;;;;;5056081;28;19928;-82
2022/04/27 02:56:42;;;;;;;;;;;;;;;;;;5055757;28;19920;-79
2022/04/27 02:59:08;;;;;;;;;;;;;;;;;;5055891;28;19970;-78
2022/04/27 03:01:34;;;;;;;;;;;;;;;;;;5064405;28;19917;-79
2022/04/27 03:03:59;;;;;;;;;;;;;;;;;;5074312;28;19943;-79
2022/04/27 03:06:25;;;;;;;;;;;;;;;;;;5070908;28;19921;-79
2022/04/27 03:08:51;;;;;;;;;;;;;;;;;;5055220;28;19927;-79
2022/04/27 03:11:16;;;;;;;;;;;;;;;;;;5055379;28;20399;-79
2022/04/27 03:13:41;;;;;;;;;;;;;;;;;;5055279;28;19917;-79
2022/04/27 03:16:07;;;;;;;;;;;;;;;;;;5055168;28;20319;-78
2022/04/27 03:18:32;;;;;;;;;;;;;;;;;;5055254;28;20277;-78
2022/04/27 03:20:58;;;;;;;;;;;;;;;;;;5055198;28;20357;-80
2022/04/27 03:23:24;;;;;;;;;;;;;;;;;;5055126;28;19916;-80
2022/04/27 03:25:49;;;;;;;;;;;;;;;;;;5055181;28;20126;-79
2022/04/27 03:28:15;;;;;;;;;;;;;;;;;;5069192;28;20019;-80
2022/04/27 03:30:41;;;;;;;;;;;;;;;;;;5074977;28;19917;-78
2022/04/27 03:33:06;;;;;;;;;;;;;;;;;;5075008;28;19916;-79
2022/04/27 03:35:32;;;;;;;;;;;;;;;;;;5074831;28;19959;-78
2022/04/27 03:37:58;;;;;;;;;;;;;;;;;;5074868;28;20383;-78
2022/04/27 03:40:24;;;;;;;;;;;;;;;;;;5074945;28;20288;-78
2022/04/27 03:42:49;;;;;;;;;;;;;;;;;;5074727;28;19917;-75
2022/04/27 03:45:19;;;;;;;;;;;;;;;;;;5074785;28;20380;-74
2022/04/27 03:47:45;;;;;;;;;;;;;;;;;;5074426;28;19959;-74
2022/04/27 03:50:10;;;;;;;;;;;;;;;;;;5072141;28;19917;-74
2022/04/27 03:52:36;;;;;;;;;;;;;;;;;;5073931;28;20287;-74
2022/04/27 03:55:02;;;;;;;;;;;;;;;;;;5076777;28;19928;-75
2022/04/27 03:57:28;;;;;;;;;;;;;;;;;;5074082;28;19992;-75
2022/04/27 03:59:53;;;;;;;;;;;;;;;;;;5074211;28;19983;-75
2022/04/27 04:02:19;;;;;;;;;;;;;;;;;;5074366;28;19924;-76
2022/04/27 04:04:45;;;;;;;;;;;;;;;;;;5073733;28;19912;-75
2022/04/27 04:07:12;;;;;;;;;;;;;;;;;;5068064;28;19975;-74
2022/04/27 04:09:38;;;;;;;;;;;;;;;;;;5053784;28;20296;-74
2022/04/27 04:12:04;;;;;;;;;;;;;;;;;;5055106;28;19920;-75
2022/04/27 04:14:30;;;;;;;;;;;;;;;;;;5032851;28;20333;-74
2022/04/27 04:16:55;;;;;;;;;;;;;;;;;;5054145;28;19923;-74
2022/04/27 04:19:21;;;;;;;;;;;;;;;;;;5053870;28;20289;-75
2022/04/27 04:21:46;;;;;;;;;;;;;;;;;;5053946;28;20373;-74
2022/04/27 04:24:12;;;;;;;;;;;;;;;;;;5053763;28;20292;-74
2022/04/27 04:29:21;;;;;;;;;;;;;;;;;;5053338;28;20338;-73
2022/04/27 04:31:47;;;;;;;;;;;;;;;;;;5052850;28;20015;-74
2022/04/27 04:34:12;;;;;;;;;;;;;;;;;;5040917;28;19917;-73
2022/04/27 04:36:38;;;;;;;;;;;;;;;;;;5033754;28;19917;-74
2022/04/27 04:39:03;;;;;;;;;;;;;;;;;;5033795;28;19917;-73
2022/04/27 04:41:28;;;;;;;;;;;;;;;;;;5033443;28;19917;-73
2022/04/27 04:43:54;;;;;;;;;;;;;;;;;;5033563;28;20032;-72
2022/04/27 04:46:20;;;;;;;;;;;;;;;;;;5033555;28;20652;-73
2022/04/27 04:48:45;;;;;;;;;;;;;;;;;;5033617;28;19984;-74
2022/04/27 04:51:10;;;;;;;;;;;;;;;;;;5033630;28;19921;-73
2022/04/27 04:53:36;;;;;;;;;;;;;;;;;;5033408;28;19975;-74
2022/04/27 04:56:01;;;;;;;;;;;;;;;;;;5015759;28;19917;-74
2022/04/27 04:58:27;;;;;;;;;;;;;;;;;;5033455;28;19924;-73
2022/04/27 05:00:52;;;;;;;;;;;;;;;;;;5033298;28;20336;-74
2022/04/27 05:03:18;;;;;;;;;;;;;;;;;;5033418;28;20012;-74
2022/04/27 05:05:44;;;;;;;;;;;;;;;;;;5033191;28;19921;-74
2022/04/27 05:08:10;;;;;;;;;;;;;;;;;;5047025;28;19975;-76
2022/04/27 05:10:36;;;;;;;;;;;;;;;;;;5053199;28;20353;-74
2022/04/27 05:13:02;;;;;;;;;;;;;;;;;;5055117;28;19920;-74
2022/04/27 05:15:27;;;;;;;;;;;;;;;;;;5053142;28;19921;-79
2022/04/27 05:17:53;;;;;;;;;;;;;;;;;;5052926;28;19921;-80
2022/04/27 05:20:18;;;;;;;;;;;;;;;;;;5052875;28;19924;-81
2022/04/27 05:22:44;;;;;;;;;;;;;;;;;;5052893;28;19952;-82
2022/04/27 05:25:10;;;;;;;;;;;;;;;;;;5052965;28;19923;-82
2022/04/27 05:27:36;;;;;;;;;;;;;;;;;;5052780;28;19917;-82
2022/04/27 05:32:47;;;;;;;;;;;;;;;;;;5053036;28;19939;-83
2022/04/27 05:35:12;;;;;;;;;;;;;;;;;;5052880;28;20353;-76
2022/04/27 05:37:38;;;;;;;;;;;;;;;;;;5052725;28;19924;-77
2022/04/27 05:40:04;;;;;;;;;;;;;;;;;;5052654;28;19921;-74
2022/04/27 05:42:31;;;;;;;;;;;;;;;;;;5052771;28;19917;-76
2022/04/27 05:44:57;;;;;;;;;;;;;;;;;;5052799;28;20262;-76
2022/04/27 05:47:23;;;;;;;;;;;;;;;;;;5052668;28;19923;-75
2022/04/27 05:49:50;;;;;;;;;;;;;;;;;;5035149;28;19920;-75
2022/04/27 05:52:16;;;;;;;;;;;;;;;;;;5052667;28;19928;-74
2022/04/27 05:54:41;;;;;;;;;;;;;;;;;;5070088;28;19916;-82
2022/04/27 05:57:07;;;;;;;;;;;;;;;;;;5076844;28;19917;-75
2022/04/27 05:59:32;;;;;;;;;;;;;;;;;;5076550;28;20319;-75
2022/04/27 06:01:58;;;;;;;;;;;;;;;;;;5076520;28;19924;-76
2022/04/27 06:04:25;;;;;;;;;;;;;;;;;;5076331;28;20320;-83
2022/04/27 06:06:50;;;;;;;;;;;;;;;;;;5092440;28;19967;-74
2022/04/27 06:09:16;;;;;;;;;;;;;;;;;;5095408;28;19970;-74
2022/04/27 06:11:41;;;;;;;;;;;;;;;;;;5095217;28;20390;-74
2022/04/27 06:14:07;;;;;;;;;;;;;;;;;;5095226;28;19922;-74
2022/04/27 06:16:34;;;;;;;;;;;;;;;;;;5095156;28;19923;-74
2022/04/27 06:19:00;;;;;;;;;;;;;;;;;;5095186;28;19912;-74
2022/04/27 06:21:30;;;;;;;;;;;;;;;;;;5094973;28;19927;-74
2022/04/27 06:23:56;;;;;;;;;;;;;;;;;;5095097;28;19934;-74
2022/04/27 06:26:22;;;;;;;;;;;;;;;;;;5094923;28;19920;-74
2022/04/27 06:28:47;;;;;;;;;;;;;;;;;;5094998;28;20010;-74
2022/04/27 06:31:13;;;;;;;;;;;;;;;;;;5095016;28;20036;-76
2022/04/27 06:33:38;;;;;;;;;;;;;;;;;;5094845;28;19927;-75
2022/04/27 06:36:04;;;;;;;;;;;;;;;;;;5094765;28;19928;-74
2022/04/27 06:38:29;;;;;;;;;;;;;;;;;;5094772;28;20327;-75
2022/04/27 06:40:55;;;;;;;;;;;;;;;;;;5094618;28;19920;-74
2022/04/27 06:43:21;;;;;;;;;;;;;;;;;;5076629;28;19939;-74
2022/04/27 06:45:46;;;;;;;;;;;;;;;;;;5094451;28;20403;-74
2022/04/27 06:48:11;;;;;;;;;;;;;;;;;;5094701;28;20362;-75
2022/04/27 06:50:37;;;;;;;;;;;;;;;;;;5094584;28;19922;-75
2022/04/27 06:53:04;;;;;;;;;;;;;;;;;;5094568;28;19916;-74
2022/04/27 06:55:30;;;;;;;;;;;;;;;;;;5094409;28;19920;-74
2022/04/27 06:57:55;;;;;;;;;;;;;;;;;;5094421;28;19927;-75
2022/04/27 07:00:21;;;;;;;;;;;;;;;;;;5094542;28;19964;-74
2022/04/27 07:02:46;;;;;;;;;;;;;;;;;;5094271;28;19952;-74
2022/04/27 07:05:17;;;;;;;;;;;;;;;;;;5094087;28;19959;-74
2022/04/27 07:07:43;;;;;;;;;;;;;;;;;;5046803;28;1027331;-74
2022/04/27 07:10:09;;;;;;;;;;;;;;;;;;5088697;28;19924;-75
2022/04/27 07:12:34;;;;;;;;;;;;;;;;;;5095576;28;20375;-74
2022/04/27 07:15:00;;;;;;;;;;;;;;;;;;5095573;28;19920;-80
2022/04/27 07:17:25;;;;;;;;;;;;;;;;;;5095003;28;19931;-81
2022/04/27 07:19:50;;;;;;;;;;;;;;;;;;5095217;28;19963;-82
2022/04/27 07:22:16;;;;;;;;;;;;;;;;;;5095281;28;20359;-81
2022/04/27 07:24:44;;;;;;;;;;;;;;;;;;5095101;28;20421;-76
2022/04/27 07:27:10;;;;;;;;;;;;;;;;;;5095056;28;19996;-77
2022/04/27 07:29:35;;;;;;;;;;;;;;;;;;5095099;28;20434;-81
2022/04/27 07:32:01;;;;;;;;;;;;;;;;;;5094987;28;19953;-74
2022/04/27 07:34:26;;;;;;;;;;;;;;;;;;5094983;28;20432;-75
2022/04/27 07:36:52;;;;;;;;;;;;;;;;;;5094937;28;19957;-74
2022/04/27 07:39:17;;;;;;;;;;;;;;;;;;5076774;28;19923;-75
2022/04/27 07:41:45;;;;;;;;;;;;;;;;;;5094847;28;19916;-81
2022/04/27 07:44:13;;;;;;;;;;;;;;;;;;5076824;28;19942;-78
2022/04/27 07:46:39;;;;;;;;;;;;;;;;;;5094630;28;20364;-79
2022/04/27 07:49:05;;;;;;;;;;;;;;;;;;5094805;28;20091;-75
2022/04/27 07:51:30;;;;;;;;;;;;;;;;;;5094537;28;19916;-80
2022/04/27 07:53:55;;;;;;;;;;;;;;;;;;5094772;28;20295;-76
2022/04/27 07:56:21;;;;;;;;;;;;;;;;;;5094716;28;19920;-76
2022/04/27 07:58:46;;;;;;;;;;;;;;;;;;5094386;28;19920;-76
2022/04/27 08:01:12;;;;;;;;;;;;;;;;;;5094481;28;20006;-75
2022/04/27 08:03:37;;;;;;;;;;;;;;;;;;5094505;28;20359;-75
2022/04/27 08:06:04;;;;;;;;;;;;;;;;;;5094406;28;19938;-75
2022/04/27 08:08:32;;;;;;;;;;;;;;;;;;5094214;28;19930;-76
2022/04/27 08:10:58;;;;;;;;;;;;;;;;;;5094087;28;20376;-76
2022/04/27 08:13:23;;;;;;;;;;;;;;;;;;5094290;28;19916;-77
2022/04/27 08:15:49;;;;;;;;;;;;;;;;;;5094076;28;19984;-77
2022/04/27 08:18:14;;;;;;;;;;;;;;;;;;5093416;28;20336;-77
2022/04/27 08:23:29;;;;;;;;;;;;;;;;;;5094457;28;19930;-76
2022/04/27 08:25:56;;;;;;;;;;;;;;;;;;5093942;28;19916;-76
2022/04/27 08:28:21;;;;;;;;;;;;;;;;;;5093853;28;19920;-76
2022/04/27 08:30:47;;;;;;;;;;;;;;;;;;5093753;28;19968;-76
2022/04/27 08:33:13;;;;;;;;;;;;;;;;;;5093961;28;19923;-77
2022/04/27 08:35:39;;;;;;;;;;;;;;;;;;5093779;28;19922;-77
2022/04/27 08:38:05;;;;;;;;;;;;;;;;;;5093792;28;20015;-76
2022/04/27 08:40:31;;;;;;;;;;;;;;;;;;5093694;28;19916;-76
2022/04/27 08:43:00;;;;;;;;;;;;;;;;;;5093920;28;19924;-76
2022/04/27 08:45:26;;;;;;;;;;;;;;;;;;5093684;28;19942;-77
2022/04/27 08:47:51;;;;;;;;;;;;;;;;;;5093268;28;20372;-76
2022/04/27 08:50:18;;;;;;;;;;;;;;;;;;5093720;28;19927;-76
2022/04/27 08:52:44;;;;;;;;;;;;;;;;;;5093450;28;19916;-77
2022/04/27 08:55:10;;;;;;;;;;;;;;;;;;5093474;28;19958;-76
2022/04/27 08:57:35;;;;;;;;;;;;;;;;;;5093264;28;19920;-76
2022/04/27 09:00:03;;;;;;;;;;;;;;;;;;5093497;28;19916;-74
2022/04/27 09:02:29;;;;;;;;;;;;;;;;;;5093450;28;19923;-73
2022/04/27 09:05:11;;;;;;;;;;;;;;;;;;5093353;28;19971;-75
2022/04/27 09:07:37;;;;;;;;;;;;;;;;;;5092937;28;19965;-73
2022/04/27 09:10:03;;;;;;;;;;;;;;;;;;5093571;28;20003;-76
2022/04/27 09:12:28;;;;;;;;;;;;;;;;;;5093052;28;19927;-74
2022/04/27 09:14:58;;;;;;;;;;;;;;;;;;5093146;28;19927;-73
2022/04/27 09:23:03;;;;;;;;;;;;;;;;;;5011102;28;19967;-75
2022/04/27 09:25:32;;;;;;;;;;;;;;;;;;5017451;28;19918;-76
2022/04/27 09:27:59;;;;;;;;;;;;;;;;;;5018670;28;19918;-75
2022/04/27 09:30:26;;;;;;;;;;;;;;;;;;5011186;28;19928;-76
2022/04/27 09:32:51;;;;;;;;;;;;;;;;;;5010751;28;20016;-81
2022/04/27 09:35:37;;;;;;;;;;;;;;;;;;5011073;28;20047;-80
2022/04/27 09:38:19;;;;;;;;;;;;;;;;;;5010579;28;19922;-81
2022/04/27 09:40:54;;;;;;;;;;;;;;;;;;5010905;28;19918;-83
2022/04/27 09:43:38;;;;;;;;;;;;;;;;;;5010774;28;20318;-82
2022/04/27 09:46:15;;;;;;;;;;;;;;;;;;5010656;28;19918;-74
2022/04/27 09:48:41;;;;;;;;;;;;;;;;;;5010773;28;19921;-80
2022/04/27 09:51:12;;;;;;;;;;;;;;;;;;5010846;28;19921;-74
2022/04/27 09:53:39;;;;;;;;;;;;;;;;;;5010136;28;20373;-74
2022/04/27 09:56:06;;;;;;;;;;;;;;;;;;5031200;28;19961;-80
2022/04/27 09:58:32;;;;;;;;;;;;;;;;;;5092741;28;19997;-73
2022/04/27 10:01:02;;;;;;;;;;;;;;;;;;5092677;28;20364;-73
2022/04/27 10:03:28;;;;;;;;;;;;;;;;;;5092943;28;20291;-74
2022/04/27 10:05:54;;;;;;;;;;;;;;;;;;5092425;28;19924;-78
2022/04/27 10:08:19;;;;;;;;;;;;;;;;;;5092440;28;20039;-79
2022/04/27 10:10:45;;;;;;;;;;;;;;;;;;5092603;28;19920;-77
2022/04/27 10:13:11;;;;;;;;;;;;;;;;;;5092410;28;19969;-73
2022/04/27 10:15:41;;;;;;;;;;;;;;;;;;5092433;28;19924;-74
2022/04/27 10:18:08;;;;;;;;;;;;;;;;;;5092598;28;19923;-77
2022/04/27 10:20:34;;;;;;;;;;;;;;;;;;5092482;28;19920;-74
2022/04/27 10:23:15;;;;;;;;;;;;;;;;;;5092492;28;19916;-80
2022/04/27 10:25:41;;;;;;;;;;;;;;;;;;5092398;28;20376;-82
2022/04/27 10:28:22;;;;;;;;;;;;;;;;;;5092255;28;19923;-75
2022/04/27 10:30:48;;;;;;;;;;;;;;;;;;5092356;28;19924;-74
2022/04/27 10:33:33;;;;;;;;;;;;;;;;;;5092162;28;20016;-77
2022/04/27 10:36:18;;;;;;;;;;;;;;;;;;5092321;28;19916;-74
2022/04/27 10:39:04;;;;;;;;;;;;;;;;;;5092127;28;19916;-74
2022/04/27 10:41:29;;;;;;;;;;;;;;;;;;5095197;28;19927;-75
2022/04/27 10:43:55;;;;;;;;;;;;;;;;;;5095885;28;20399;-74
2022/04/27 10:46:38;;;;;;;;;;;;;;;;;;5077556;28;20354;-74
2022/04/27 10:49:24;;;;;;;;;;;;;;;;;;5095842;28;19916;-74
2022/04/27 10:52:03;;;;;;;;;;;;;;;;;;5095029;28;19920;-74
2022/04/27 10:54:31;;;;;;;;;;;;;;;;;;5095685;28;19916;-74
2022/04/27 10:57:15;;;;;;;;;;;;;;;;;;5095770;28;20069;-75
2022/04/27 10:59:51;;;;;;;;;;;;;;;;;;5095867;28;20362;-74
2022/04/27 11:02:37;;;;;;;;;;;;;;;;;;5095763;28;19923;-75
2022/04/27 11:05:04;;;;;;;;;;;;;;;;;;5095777;28;19957;-75
2022/04/27 11:07:29;;;;;;;;;;;;;;;;;;5095460;28;20471;-74
2022/04/27 11:09:54;;;;;;;;;;;;;;;;;;5095372;28;20002;-74
2022/04/27 11:12:20;;;;;;;;;;;;;;;;;;5095318;28;20007;-79
2022/04/27 11:14:45;;;;;;;;;;;;;;;;;;5089531;28;20003;-74
2022/04/27 11:17:11;;;;;;;;;;;;;;;;;;5068431;28;19943;-80
2022/04/27 11:19:37;;;;;;;;;;;;;;;;;;5074747;28;19927;-75
2022/04/27 11:22:10;;;;;;;;;;;;;;;;;;5075144;28;19923;-75
2022/04/27 11:24:35;;;;;;;;;;;;;;;;;;5075041;28;19974;-75
2022/04/27 11:27:01;;;;;;;;;;;;;;;;;;5074908;28;19999;-76
2022/04/27 11:29:26;;;;;;;;;;;;;;;;;;5074905;28;20003;-75
2022/04/27 11:31:52;;;;;;;;;;;;;;;;;;5066094;28;19924;-74
2022/04/27 11:34:24;;;;;;;;;;;;;;;;;;5064406;28;20003;-81
2022/04/27 11:36:50;;;;;;;;;;;;;;;;;;5073652;28;20443;-75
2022/04/27 11:39:20;;;;;;;;;;;;;;;;;;5073827;28;19920;-74
2022/04/27 11:41:45;;;;;;;;;;;;;;;;;;5073635;28;20019;-75
2022/04/27 11:44:18;;;;;;;;;;;;;;;;;;5073954;28;20007;-78
2022/04/27 11:46:44;;;;;;;;;;;;;;;;;;5073889;28;20391;-84
2022/04/27 11:49:12;;;;;;;;;;;;;;;;;;5073809;28;19916;-82
2022/04/27 11:51:38;;;;;;;;;;;;;;;;;;5054475;28;19916;-79
2022/04/27 11:54:04;;;;;;;;;;;;;;;;;;5073623;28;20376;-81
2022/04/27 11:56:35;;;;;;;;;;;;;;;;;;5073509;28;19920;-78
2022/04/27 11:59:07;;;;;;;;;;;;;;;;;;5073542;28;20373;-78
2022/04/27 12:01:33;;;;;;;;;;;;;;;;;;5073395;28;20007;-76
2022/04/27 12:03:59;;;;;;;;;;;;;;;;;;5073339;28;19923;-77
2022/04/27 12:06:26;;;;;;;;;;;;;;;;;;5073698;28;19987;-84
2022/04/27 12:08:52;;;;;;;;;;;;;;;;;;5055338;28;20381;-89
2022/04/27 12:11:22;;;;;;;;;;;;;;;;;;5073439;28;19916;-88
2022/04/27 12:13:48;;;;;;;;;;;;;;;;;;5073140;28;19916;-79
2022/04/27 12:16:13;;;;;;;;;;;;;;;;;;5073214;28;20054;-75
2022/04/27 12:18:49;;;;;;;;;;;;;;;;;;5073115;28;19916;-76
2022/04/27 12:21:19;;;;;;;;;;;;;;;;;;5071593;28;19920;-73
2022/04/27 12:23:45;;;;;;;;;;;;;;;;;;5065389;28;20376;-78
2022/04/27 12:26:11;;;;;;;;;;;;;;;;;;5072046;28;19925;-74
2022/04/27 12:28:47;;;;;;;;;;;;;;;;;;5070441;28;19920;-74
2022/04/27 12:31:14;;;;;;;;;;;;;;;;;;5064968;28;19917;-73
2022/04/27 12:33:44;;;;;;;;;;;;;;;;;;5049965;28;19927;-74
2022/04/27 12:38:56;;;;;;;;;;;;;;;;;;5069896;28;19924;-79
2022/04/27 12:41:34;;;;;;;;;;;;;;;;;;5070837;28;19912;-74
2022/04/27 12:44:07;;;;;;;;;;;;;;;;;;5072657;28;19923;-74
2022/04/27 12:46:33;;;;;;;;;;;;;;;;;;5054809;28;19985;-74
2022/04/27 12:49:08;;;;;;;;;;;;;;;;;;5072633;28;19920;-74
2022/04/27 12:51:35;;;;;;;;;;;;;;;;;;5072535;28;19917;-74
2022/04/27 12:54:04;;;;;;;;;;;;;;;;;;5072465;28;20475;-74
2022/04/27 12:56:33;;;;;;;;;;;;;;;;;;5072446;28;19913;-75
2022/04/27 12:59:09;;;;;;;;;;;;;;;;;;5072572;28;19920;-75
2022/04/27 13:01:34;;;;;;;;;;;;;;;;;;5071167;28;19969;-73
2022/04/27 13:04:00;;;;;;;;;;;;;;;;;;5071056;28;20110;-75
2022/04/27 13:06:26;;;;;;;;;;;;;;;;;;5071814;28;19921;-74
2022/04/27 13:08:52;;;;;;;;;;;;;;;;;;5071782;28;19932;-74
2022/04/27 13:14:04;;;;;;;;;;;;;;;;;;5070901;28;19924;-73
2022/04/27 13:16:29;;;;;;;;;;;;;;;;;;5071112;28;19989;-74
2022/04/27 13:18:55;;;;;;;;;;;;;;;;;;5071696;28;20011;-74
2022/04/27 13:21:21;;;;;;;;;;;;;;;;;;5072225;28;19927;-74
2022/04/27 13:23:47;;;;;;;;;;;;;;;;;;5071006;28;19920;-78
2022/04/27 13:26:12;;;;;;;;;;;;;;;;;;5071965;28;19917;-75
2022/04/27 13:28:40;;;;;;;;;;;;;;;;;;5068294;28;19927;-77
2022/04/27 13:31:09;;;;;;;;;;;;;;;;;;5062789;28;19920;-76
2022/04/27 13:33:34;;;;;;;;;;;;;;;;;;5063673;28;20395;-77
2022/04/27 13:36:00;;;;;;;;;;;;;;;;;;5063524;28;19924;-77
2022/04/27 13:38:27;;;;;;;;;;;;;;;;;;5063164;28;20434;-74
2022/04/27 13:40:53;;;;;;;;;;;;;;;;;;5064395;28;19953;-75
2022/04/27 13:43:19;;;;;;;;;;;;;;;;;;5066714;28;19920;-74
2022/04/27 13:45:44;;;;;;;;;;;;;;;;;;5057400;28;20411;-74
2022/04/27 13:48:10;;;;;;;;;;;;;;;;;;5058242;28;20340;-79
2022/04/27 13:50:35;;;;;;;;;;;;;;;;;;5072646;28;19966;-77
2022/04/27 13:53:01;;;;;;;;;;;;;;;;;;5072513;28;19923;-75
2022/04/27 13:55:27;;;;;;;;;;;;;;;;;;5054527;28;19917;-74
2022/04/27 13:57:54;;;;;;;;;;;;;;;;;;5072609;28;19926;-74
2022/04/27 14:00:19;;;;;;;;;;;;;;;;;;5072700;28;19916;-74
2022/04/27 14:02:45;;;;;;;;;;;;;;;;;;5072600;28;19923;-73
2022/04/27 14:05:11;;;;;;;;;;;;;;;;;;5072626;28;19920;-72
2022/04/27 14:07:37;;;;;;;;;;;;;;;;;;5072266;28;20300;-73
2022/04/27 14:10:06;;;;;;;;;;;;;;;;;;5072607;28;20108;-73
2022/04/27 14:15:15;;;;;;;;;;;;;;;;;;5073689;28;19927;-72
2022/04/27 14:20:25;;;;;;;;;;;;;;;;;;5076664;28;20066;-73
2022/04/27 14:22:50;;;;;;;;;;;;;;;;;;5076327;28;19971;-73
2022/04/27 14:25:16;;;;;;;;;;;;;;;;;;5075811;28;19917;-73
2022/04/27 14:27:41;;;;;;;;;;;;;;;;;;5076033;28;19944;-73
2022/04/27 14:30:07;;;;;;;;;;;;;;;;;;5076150;28;20380;-73
2022/04/27 14:32:33;;;;;;;;;;;;;;;;;;5075929;28;19917;-73
2022/04/27 14:34:58;;;;;;;;;;;;;;;;;;5076099;28;19917;-73
2022/04/27 14:37:24;;;;;;;;;;;;;;;;;;5075884;28;19916;-73
2022/04/27 14:39:49;;;;;;;;;;;;;;;;;;5075834;28;19920;-73
2022/04/27 14:42:15;;;;;;;;;;;;;;;;;;5076056;28;19920;-73
2022/04/27 14:44:40;;;;;;;;;;;;;;;;;;5075941;28;19916;-74
2022/04/27 14:47:06;;;;;;;;;;;;;;;;;;5075792;28;20338;-74
2022/04/27 14:49:31;;;;;;;;;;;;;;;;;;5075770;28;19963;-74
2022/04/27 14:51:57;;;;;;;;;;;;;;;;;;5075656;28;20296;-73
2022/04/27 14:54:23;;;;;;;;;;;;;;;;;;5075611;28;19916;-73
2022/04/27 14:56:49;;;;;;;;;;;;;;;;;;5075686;28;19962;-73
2022/04/27 14:59:14;;;;;;;;;;;;;;;;;;5075721;28;19916;-73
2022/04/27 15:01:41;;;;;;;;;;;;;;;;;;5075514;28;19921;-75
2022/04/27 15:04:06;;;;;;;;;;;;;;;;;;5075545;28;19923;-73
2022/04/27 15:06:32;;;;;;;;;;;;;;;;;;5075310;28;19921;-74
2022/04/27 15:08:57;;;;;;;;;;;;;;;;;;5075368;28;20279;-73
2022/04/27 15:11:23;;;;;;;;;;;;;;;;;;5075485;28;20378;-73
2022/04/27 15:13:49;;;;;;;;;;;;;;;;;;5075142;28;19923;-73
2022/04/27 15:16:15;;;;;;;;;;;;;;;;;;5075370;28;20315;-76
2022/04/27 15:18:40;;;;;;;;;;;;;;;;;;5057359;28;19916;-73
2022/04/27 15:23:50;;;;;;;;;;;;;;;;;;5075062;28;19922;-74
2022/04/27 15:26:16;;;;;;;;;;;;;;;;;;5073673;28;19927;-75
2022/04/27 15:28:41;;;;;;;;;;;;;;;;;;5063625;28;19920;-73
2022/04/27 15:31:07;;;;;;;;;;;;;;;;;;5067275;28;19921;-76
2022/04/27 15:33:32;;;;;;;;;;;;;;;;;;5069249;28;20455;-74
2022/04/27 15:35:58;;;;;;;;;;;;;;;;;;5074925;28;19940;-79
2022/04/27 15:38:24;;;;;;;;;;;;;;;;;;5074890;28;20019;-74
2022/04/27 15:40:49;;;;;;;;;;;;;;;;;;5074776;28;19955;-75
2022/04/27 15:43:14;;;;;;;;;;;;;;;;;;5074814;28;19927;-74
2022/04/27 15:45:40;;;;;;;;;;;;;;;;;;5068060;28;19920;-75
2022/04/27 15:48:06;;;;;;;;;;;;;;;;;;5074731;28;19978;-75
2022/04/27 15:50:35;;;;;;;;;;;;;;;;;;5056701;28;20369;-77
2022/04/27 15:53:06;;;;;;;;;;;;;;;;;;5074533;28;20007;-75
2022/04/27 15:55:32;;;;;;;;;;;;;;;;;;5074608;28;19923;-75
2022/04/27 15:57:57;;;;;;;;;;;;;;;;;;5074461;28;19921;-75
2022/04/27 16:00:23;;;;;;;;;;;;;;;;;;5074444;28;19923;-77
2022/04/27 16:02:48;;;;;;;;;;;;;;;;;;5074452;28;19916;-76
2022/04/27 16:05:14;;;;;;;;;;;;;;;;;;5074302;28;20373;-77
2022/04/27 16:07:41;;;;;;;;;;;;;;;;;;5073877;28;19920;-74
2022/04/27 16:10:08;;;;;;;;;;;;;;;;;;5074309;28;19936;-73
2022/04/27 16:12:34;;;;;;;;;;;;;;;;;;5074197;28;19923;-77
2022/04/27 16:14:59;;;;;;;;;;;;;;;;;;5074183;28;19916;-74
2022/04/27 16:17:25;;;;;;;;;;;;;;;;;;5074236;28;19984;-73
2022/04/27 16:19:50;;;;;;;;;;;;;;;;;;5073815;28;20304;-76
2022/04/27 16:25:00;;;;;;;;;;;;;;;;;;5074082;28;20427;-76
2022/04/27 16:27:26;;;;;;;;;;;;;;;;;;5073767;28;19920;-75
2022/04/27 16:29:52;;;;;;;;;;;;;;;;;;5055994;28;19928;-73
2022/04/27 16:32:17;;;;;;;;;;;;;;;;;;5073855;28;20279;-74
2022/04/27 16:34:43;;;;;;;;;;;;;;;;;;5089302;28;19917;-74
2022/04/27 16:37:09;;;;;;;;;;;;;;;;;;5093885;28;19920;-75
2022/04/27 16:39:34;;;;;;;;;;;;;;;;;;5093521;28;19916;-73
2022/04/27 16:42:01;;;;;;;;;;;;;;;;;;5094019;28;20357;-78
2022/04/27 16:44:27;;;;;;;;;;;;;;;;;;5080433;28;19921;-76
2022/04/27 16:46:53;;;;;;;;;;;;;;;;;;5053548;28;19924;-75
2022/04/27 16:49:18;;;;;;;;;;;;;;;;;;5053620;28;19917;-76
2022/04/27 16:51:44;;;;;;;;;;;;;;;;;;5053412;28;19920;-79
2022/04/27 16:54:10;;;;;;;;;;;;;;;;;;5053448;28;19921;-74
2022/04/27 16:56:35;;;;;;;;;;;;;;;;;;5053410;28;19964;-73
2022/04/27 16:59:01;;;;;;;;;;;;;;;;;;5053426;28;19916;-75
2022/04/27 17:01:27;;;;;;;;;;;;;;;;;;5053501;28;20446;-75
2022/04/27 17:03:52;;;;;;;;;;;;;;;;;;5053278;28;19952;-75
2022/04/27 17:06:19;;;;;;;;;;;;;;;;;;5053158;28;20001;-75
2022/04/27 17:08:46;;;;;;;;;;;;;;;;;;5053079;28;19927;-76
2022/04/27 17:11:12;;;;;;;;;;;;;;;;;;5053315;28;19948;-78
2022/04/27 17:13:38;;;;;;;;;;;;;;;;;;5052981;28;19974;-74
2022/04/27 17:16:05;;;;;;;;;;;;;;;;;;5053126;28;19923;-74
2022/04/27 17:18:30;;;;;;;;;;;;;;;;;;5053189;28;19917;-74